sensor_id;sensor_type;location;lat;lon;timestamp;temperature;humidity
33247;DHT22;19606;50.108;19.804;2022-12-07T00:01:39;2.10;99.90
33247;DHT22;19606;50.108;19.804;2022-12-07T00:04:07;2.00;99.90
33247;DHT22;19606;50.108;19.804;2022-12-07T00:06:45;2.70;99.90
33247;DHT22;19606;50.108;19.804;2022-12-07T00:09:13;2.00;99.90
33247;DHT22;19606;50.108;19.804;2022-12-07T00:11:39;2.30;99.90
33247;DHT22;19606;50.108;19.804;2022-12-07T00:14:07;2.00;99.90
33247;DHT22;19606;50.108;19.804;2022-12-07T00:16:34;2.20;99.90
33247;DHT22;19606;50.108;19.804;2022-12-07T00:19:00;2.20;99.90
33247;DHT22;19606;50.108;19.804;2022-12-07T00:21:28;2.30;99.90
33247;DHT22;19606;50.108;19.804;2022-12-07T00:23:55;2.10;99.90
33247;DHT22;19606;50.108;19.804;2022-12-07T00:26:24;2.00;99.90
33247;DHT22;19606;50.108;19.804;2022-12-07T00:28:52;3.00;99.90
33247;DHT22;19606;50.108;19.804;2022-12-07T00:31:21;2.10;99.90
33247;DHT22;19606;50.108;19.804;2022-12-07T00:33:48;2.30;99.90
33247;DHT22;19606;50.108;19.804;2022-12-07T00:36:16;2.00;99.90
33247;DHT22;19606;50.108;19.804;2022-12-07T00:38:42;2.60;99.90
33247;DHT22;19606;50.108;19.804;2022-12-07T00:41:14;2.00;99.90
33247;DHT22;19606;50.108;19.804;2022-12-07T00:43:41;2.10;99.90
33247;DHT22;19606;50.108;19.804;2022-12-07T00:46:07;2.90;99.90
33247;DHT22;19606;50.108;19.804;2022-12-07T00:48:33;2.70;99.90
33247;DHT22;19606;50.108;19.804;2022-12-07T00:50:59;2.50;99.90
33247;DHT22;19606;50.108;19.804;2022-12-07T00:53:24;2.20;99.90
33247;DHT22;19606;50.108;19.804;2022-12-07T00:55:50;2.00;99.90
33247;DHT22;19606;50.108;19.804;2022-12-07T00:58:18;2.00;99.90
33247;DHT22;19606;50.108;19.804;2022-12-07T01:00:44;2.00;99.90
33247;DHT22;19606;50.108;19.804;2022-12-07T01:03:12;2.00;99.90
33247;DHT22;19606;50.108;19.804;2022-12-07T01:05:38;2.40;99.90
33247;DHT22;19606;50.108;19.804;2022-12-07T01:08:04;2.00;99.90
33247;DHT22;19606;50.108;19.804;2022-12-07T01:10:30;2.00;99.90
33247;DHT22;19606;50.108;19.804;2022-12-07T01:12:57;2.00;99.90
33247;DHT22;19606;50.108;19.804;2022-12-07T01:15:23;2.10;99.90
33247;DHT22;19606;50.108;19.804;2022-12-07T01:17:50;2.20;99.90
33247;DHT22;19606;50.108;19.804;2022-12-07T01:20:16;2.00;99.90
33247;DHT22;19606;50.108;19.804;2022-12-07T01:22:42;2.00;99.90
33247;DHT22;19606;50.108;19.804;2022-12-07T01:25:10;2.20;99.90
33247;DHT22;19606;50.108;19.804;2022-12-07T01:27:36;2.10;99.90
33247;DHT22;19606;50.108;19.804;2022-12-07T01:30:04;2.00;99.90
33247;DHT22;19606;50.108;19.804;2022-12-07T01:32:30;1.90;99.90
33247;DHT22;19606;50.108;19.804;2022-12-07T01:34:56;1.90;99.90
33247;DHT22;19606;50.108;19.804;2022-12-07T01:37:21;1.90;99.90
33247;DHT22;19606;50.108;19.804;2022-12-07T01:39:51;1.80;99.90
33247;DHT22;19606;50.108;19.804;2022-12-07T01:42:17;1.80;99.90
33247;DHT22;19606;50.108;19.804;2022-12-07T01:47:47;1.70;99.90
33247;DHT22;19606;50.108;19.804;2022-12-07T01:50:14;1.90;99.90
33247;DHT22;19606;50.108;19.804;2022-12-07T01:52:40;1.80;99.90
33247;DHT22;19606;50.108;19.804;2022-12-07T01:55:09;2.00;99.90
33247;DHT22;19606;50.108;19.804;2022-12-07T01:57:43;1.70;99.90
33247;DHT22;19606;50.108;19.804;2022-12-07T02:00:10;1.70;99.90
33247;DHT22;19606;50.108;19.804;2022-12-07T02:05:30;1.60;99.90
33247;DHT22;19606;50.108;19.804;2022-12-07T02:07:57;1.60;99.90
33247;DHT22;19606;50.108;19.804;2022-12-07T02:10:29;2.00;99.90
33247;DHT22;19606;50.108;19.804;2022-12-07T02:13:00;1.60;99.90
33247;DHT22;19606;50.108;19.804;2022-12-07T02:15:51;1.60;99.90
33247;DHT22;19606;50.108;19.804;2022-12-07T02:18:25;1.50;99.90
33247;DHT22;19606;50.108;19.804;2022-12-07T02:23:41;1.50;99.90
33247;DHT22;19606;50.108;19.804;2022-12-07T02:26:36;1.70;99.90
33247;DHT22;19606;50.108;19.804;2022-12-07T02:29:22;1.40;99.90
33247;DHT22;19606;50.108;19.804;2022-12-07T02:32:34;1.40;99.90
33247;DHT22;19606;50.108;19.804;2022-12-07T02:38:19;1.30;99.90
33247;DHT22;19606;50.108;19.804;2022-12-07T02:40:53;1.30;99.90
33247;DHT22;19606;50.108;19.804;2022-12-07T02:43:45;1.30;99.90
33247;DHT22;19606;50.108;19.804;2022-12-07T02:46:22;1.30;99.90
33247;DHT22;19606;50.108;19.804;2022-12-07T02:48:52;1.20;99.90
33247;DHT22;19606;50.108;19.804;2022-12-07T02:51:19;1.30;99.90
33247;DHT22;19606;50.108;19.804;2022-12-07T02:53:44;1.40;99.90
33247;DHT22;19606;50.108;19.804;2022-12-07T03:10:40;1.20;99.90
33247;DHT22;19606;50.108;19.804;2022-12-07T03:18:28;1.20;99.90
33247;DHT22;19606;50.108;19.804;2022-12-07T03:20:58;1.30;99.90
33247;DHT22;19606;50.108;19.804;2022-12-07T03:23:27;1.10;99.90
33247;DHT22;19606;50.108;19.804;2022-12-07T03:25:57;1.40;99.90
33247;DHT22;19606;50.108;19.804;2022-12-07T03:28:26;1.20;99.90
33247;DHT22;19606;50.108;19.804;2022-12-07T03:30:59;1.20;99.90
33247;DHT22;19606;50.108;19.804;2022-12-07T03:33:49;1.30;99.90
33247;DHT22;19606;50.108;19.804;2022-12-07T03:39:03;1.20;99.90
33247;DHT22;19606;50.108;19.804;2022-12-07T03:41:36;1.20;99.90
33247;DHT22;19606;50.108;19.804;2022-12-07T03:44:03;1.20;99.90
33247;DHT22;19606;50.108;19.804;2022-12-07T03:49:34;1.20;99.90
33247;DHT22;19606;50.108;19.804;2022-12-07T03:52:36;1.40;99.90
33247;DHT22;19606;50.108;19.804;2022-12-07T03:55:18;1.20;99.90
33247;DHT22;19606;50.108;19.804;2022-12-07T03:57:47;1.20;99.90
33247;DHT22;19606;50.108;19.804;2022-12-07T04:00:14;1.50;99.90
33247;DHT22;19606;50.108;19.804;2022-12-07T04:02:41;1.20;99.90
33247;DHT22;19606;50.108;19.804;2022-12-07T04:05:09;1.30;99.90
33247;DHT22;19606;50.108;19.804;2022-12-07T04:07:35;1.30;99.90
33247;DHT22;19606;50.108;19.804;2022-12-07T04:10:01;1.30;99.90
33247;DHT22;19606;50.108;19.804;2022-12-07T04:12:27;1.30;99.90
33247;DHT22;19606;50.108;19.804;2022-12-07T04:14:52;1.20;99.90
33247;DHT22;19606;50.108;19.804;2022-12-07T04:17:18;1.20;99.90
33247;DHT22;19606;50.108;19.804;2022-12-07T04:19:43;1.30;99.90
33247;DHT22;19606;50.108;19.804;2022-12-07T04:22:09;1.40;99.90
33247;DHT22;19606;50.108;19.804;2022-12-07T04:24:35;1.20;99.90
33247;DHT22;19606;50.108;19.804;2022-12-07T04:27:00;1.40;99.90
33247;DHT22;19606;50.108;19.804;2022-12-07T04:29:26;1.30;99.90
33247;DHT22;19606;50.108;19.804;2022-12-07T04:31:52;1.10;99.90
33247;DHT22;19606;50.108;19.804;2022-12-07T04:34:19;1.10;99.90
33247;DHT22;19606;50.108;19.804;2022-12-07T04:36:45;1.40;99.90
33247;DHT22;19606;50.108;19.804;2022-12-07T04:39:23;1.20;99.90
33247;DHT22;19606;50.108;19.804;2022-12-07T04:41:49;1.20;99.90
33247;DHT22;19606;50.108;19.804;2022-12-07T04:44:16;1.30;99.90
33247;DHT22;19606;50.108;19.804;2022-12-07T04:46:42;1.30;99.90
33247;DHT22;19606;50.108;19.804;2022-12-07T04:49:08;1.20;99.90
33247;DHT22;19606;50.108;19.804;2022-12-07T04:51:34;1.20;99.90
33247;DHT22;19606;50.108;19.804;2022-12-07T04:54:00;1.20;99.90
33247;DHT22;19606;50.108;19.804;2022-12-07T04:56:25;1.20;99.90
33247;DHT22;19606;50.108;19.804;2022-12-07T04:58:52;1.10;99.90
33247;DHT22;19606;50.108;19.804;2022-12-07T05:01:18;1.40;99.90
33247;DHT22;19606;50.108;19.804;2022-12-07T05:03:45;1.10;99.90
33247;DHT22;19606;50.108;19.804;2022-12-07T05:06:11;1.20;99.90
33247;DHT22;19606;50.108;19.804;2022-12-07T05:08:37;1.30;99.90
33247;DHT22;19606;50.108;19.804;2022-12-07T05:11:04;1.50;99.90
33247;DHT22;19606;50.108;19.804;2022-12-07T05:13:31;1.30;99.90
33247;DHT22;19606;50.108;19.804;2022-12-07T05:15:57;1.30;99.90
33247;DHT22;19606;50.108;19.804;2022-12-07T05:18:23;1.30;99.90
33247;DHT22;19606;50.108;19.804;2022-12-07T05:20:49;1.40;99.90
33247;DHT22;19606;50.108;19.804;2022-12-07T05:23:14;1.40;99.90
33247;DHT22;19606;50.108;19.804;2022-12-07T05:25:40;1.50;99.90
33247;DHT22;19606;50.108;19.804;2022-12-07T05:28:06;1.40;99.90
33247;DHT22;19606;50.108;19.804;2022-12-07T05:30:32;1.50;99.90
33247;DHT22;19606;50.108;19.804;2022-12-07T05:32:58;1.50;99.90
33247;DHT22;19606;50.108;19.804;2022-12-07T05:35:24;1.60;99.90
33247;DHT22;19606;50.108;19.804;2022-12-07T05:37:49;1.50;99.90
33247;DHT22;19606;50.108;19.804;2022-12-07T05:40:16;1.50;99.90
33247;DHT22;19606;50.108;19.804;2022-12-07T05:42:42;1.60;99.90
33247;DHT22;19606;50.108;19.804;2022-12-07T05:45:09;1.50;99.90
33247;DHT22;19606;50.108;19.804;2022-12-07T05:47:35;1.50;99.90
33247;DHT22;19606;50.108;19.804;2022-12-07T05:50:01;1.60;99.90
33247;DHT22;19606;50.108;19.804;2022-12-07T05:52:27;1.60;99.90
33247;DHT22;19606;50.108;19.804;2022-12-07T05:54:52;1.70;99.90
33247;DHT22;19606;50.108;19.804;2022-12-07T05:57:19;1.50;99.90
33247;DHT22;19606;50.108;19.804;2022-12-07T05:59:44;1.60;99.90
33247;DHT22;19606;50.108;19.804;2022-12-07T06:02:13;1.60;99.90
33247;DHT22;19606;50.108;19.804;2022-12-07T06:04:44;1.70;99.90
33247;DHT22;19606;50.108;19.804;2022-12-07T06:07:11;1.60;99.90
33247;DHT22;19606;50.108;19.804;2022-12-07T06:09:37;1.60;99.90
33247;DHT22;19606;50.108;19.804;2022-12-07T06:12:03;1.60;99.90
33247;DHT22;19606;50.108;19.804;2022-12-07T06:14:48;1.60;99.90
33247;DHT22;19606;50.108;19.804;2022-12-07T06:17:14;1.60;99.90
33247;DHT22;19606;50.108;19.804;2022-12-07T06:19:41;1.80;99.90
33247;DHT22;19606;50.108;19.804;2022-12-07T06:22:07;1.60;99.90
33247;DHT22;19606;50.108;19.804;2022-12-07T06:24:33;1.60;99.90
33247;DHT22;19606;50.108;19.804;2022-12-07T06:26:59;1.60;99.90
33247;DHT22;19606;50.108;19.804;2022-12-07T06:29:25;1.60;99.90
33247;DHT22;19606;50.108;19.804;2022-12-07T06:31:50;2.00;99.90
33247;DHT22;19606;50.108;19.804;2022-12-07T06:34:19;1.60;99.90
33247;DHT22;19606;50.108;19.804;2022-12-07T06:36:46;1.80;99.90
33247;DHT22;19606;50.108;19.804;2022-12-07T06:39:17;1.60;99.90
33247;DHT22;19606;50.108;19.804;2022-12-07T06:41:42;1.50;99.90
33247;DHT22;19606;50.108;19.804;2022-12-07T06:44:08;1.50;99.90
33247;DHT22;19606;50.108;19.804;2022-12-07T06:46:34;1.60;99.90
33247;DHT22;19606;50.108;19.804;2022-12-07T06:49:01;1.50;99.90
33247;DHT22;19606;50.108;19.804;2022-12-07T06:51:27;1.40;99.90
33247;DHT22;19606;50.108;19.804;2022-12-07T06:53:53;1.40;99.90
33247;DHT22;19606;50.108;19.804;2022-12-07T06:56:19;1.40;99.90
33247;DHT22;19606;50.108;19.804;2022-12-07T06:58:44;1.60;99.90
33247;DHT22;19606;50.108;19.804;2022-12-07T07:01:16;1.50;99.90
33247;DHT22;19606;50.108;19.804;2022-12-07T07:03:43;1.30;99.90
33247;DHT22;19606;50.108;19.804;2022-12-07T07:06:10;1.30;99.90
33247;DHT22;19606;50.108;19.804;2022-12-07T07:08:36;1.40;99.90
33247;DHT22;19606;50.108;19.804;2022-12-07T07:11:02;1.30;99.90
33247;DHT22;19606;50.108;19.804;2022-12-07T07:13:28;1.40;99.90
33247;DHT22;19606;50.108;19.804;2022-12-07T07:15:54;1.50;99.90
33247;DHT22;19606;50.108;19.804;2022-12-07T07:18:21;1.40;99.90
33247;DHT22;19606;50.108;19.804;2022-12-07T07:20:47;1.50;99.90
33247;DHT22;19606;50.108;19.804;2022-12-07T07:23:13;1.50;99.90
33247;DHT22;19606;50.108;19.804;2022-12-07T07:25:38;1.70;99.90
33247;DHT22;19606;50.108;19.804;2022-12-07T07:28:04;1.50;99.90
33247;DHT22;19606;50.108;19.804;2022-12-07T07:30:30;1.50;99.90
33247;DHT22;19606;50.108;19.804;2022-12-07T07:32:57;2.30;99.90
33247;DHT22;19606;50.108;19.804;2022-12-07T07:35:24;1.70;99.90
33247;DHT22;19606;50.108;19.804;2022-12-07T07:37:50;1.80;99.90
33247;DHT22;19606;50.108;19.804;2022-12-07T07:40:16;1.60;99.90
33247;DHT22;19606;50.108;19.804;2022-12-07T07:42:42;1.60;99.90
33247;DHT22;19606;50.108;19.804;2022-12-07T07:45:08;2.70;99.90
33247;DHT22;19606;50.108;19.804;2022-12-07T07:47:34;1.70;99.90
33247;DHT22;19606;50.108;19.804;2022-12-07T07:49:59;1.90;99.90
33247;DHT22;19606;50.108;19.804;2022-12-07T07:52:26;1.90;99.90
33247;DHT22;19606;50.108;19.804;2022-12-07T07:54:51;2.00;99.90
33247;DHT22;19606;50.108;19.804;2022-12-07T07:57:17;2.30;99.90
33247;DHT22;19606;50.108;19.804;2022-12-07T07:59:43;1.80;99.90
33247;DHT22;19606;50.108;19.804;2022-12-07T08:02:17;1.90;99.90
33247;DHT22;19606;50.108;19.804;2022-12-07T08:04:43;2.20;99.90
33247;DHT22;19606;50.108;19.804;2022-12-07T08:07:09;2.20;99.90
33247;DHT22;19606;50.108;19.804;2022-12-07T08:09:34;2.60;99.90
33247;DHT22;19606;50.108;19.804;2022-12-07T08:12:00;2.30;99.90
33247;DHT22;19606;50.108;19.804;2022-12-07T08:14:26;2.20;99.90
33247;DHT22;19606;50.108;19.804;2022-12-07T08:16:53;2.00;99.90
33247;DHT22;19606;50.108;19.804;2022-12-07T08:19:18;2.10;99.90
33247;DHT22;19606;50.108;19.804;2022-12-07T08:21:44;2.20;99.90
33247;DHT22;19606;50.108;19.804;2022-12-07T08:24:10;2.30;99.90
33247;DHT22;19606;50.108;19.804;2022-12-07T08:26:35;2.30;99.90
33247;DHT22;19606;50.108;19.804;2022-12-07T08:29:01;2.10;99.90
33247;DHT22;19606;50.108;19.804;2022-12-07T08:31:27;2.10;99.90
33247;DHT22;19606;50.108;19.804;2022-12-07T08:33:54;2.10;99.90
33247;DHT22;19606;50.108;19.804;2022-12-07T08:36:20;2.40;99.90
33247;DHT22;19606;50.108;19.804;2022-12-07T08:38:48;2.10;99.90
33247;DHT22;19606;50.108;19.804;2022-12-07T08:41:14;2.30;99.90
33247;DHT22;19606;50.108;19.804;2022-12-07T08:43:43;2.10;99.90
33247;DHT22;19606;50.108;19.804;2022-12-07T08:46:18;2.10;99.90
33247;DHT22;19606;50.108;19.804;2022-12-07T08:48:54;2.20;99.90
33247;DHT22;19606;50.108;19.804;2022-12-07T08:51:22;2.50;99.90
33247;DHT22;19606;50.108;19.804;2022-12-07T08:53:49;2.60;99.90
33247;DHT22;19606;50.108;19.804;2022-12-07T08:56:16;3.30;99.90
33247;DHT22;19606;50.108;19.804;2022-12-07T08:58:42;2.30;99.90
33247;DHT22;19606;50.108;19.804;2022-12-07T09:01:08;2.70;99.90
33247;DHT22;19606;50.108;19.804;2022-12-07T09:03:35;2.70;99.90
33247;DHT22;19606;50.108;19.804;2022-12-07T09:06:00;2.50;99.90
33247;DHT22;19606;50.108;19.804;2022-12-07T09:08:31;2.50;99.90
33247;DHT22;19606;50.108;19.804;2022-12-07T09:10:58;2.40;99.90
33247;DHT22;19606;50.108;19.804;2022-12-07T09:13:24;2.60;99.90
33247;DHT22;19606;50.108;19.804;2022-12-07T09:15:49;2.60;99.90
33247;DHT22;19606;50.108;19.804;2022-12-07T09:20:44;2.50;99.90
33247;DHT22;19606;50.108;19.804;2022-12-07T09:23:10;2.60;99.90
33247;DHT22;19606;50.108;19.804;2022-12-07T09:25:36;3.40;99.90
33247;DHT22;19606;50.108;19.804;2022-12-07T09:28:01;2.40;99.90
33247;DHT22;19606;50.108;19.804;2022-12-07T09:30:27;2.40;99.90
33247;DHT22;19606;50.108;19.804;2022-12-07T09:32:54;2.30;99.90
33247;DHT22;19606;50.108;19.804;2022-12-07T09:35:20;2.70;99.90
33247;DHT22;19606;50.108;19.804;2022-12-07T09:37:46;3.30;99.90
33247;DHT22;19606;50.108;19.804;2022-12-07T09:40:13;2.50;99.90
33247;DHT22;19606;50.108;19.804;2022-12-07T09:42:42;2.30;99.90
33247;DHT22;19606;50.108;19.804;2022-12-07T09:45:25;2.50;99.90
33247;DHT22;19606;50.108;19.804;2022-12-07T09:47:51;2.20;99.90
33247;DHT22;19606;50.108;19.804;2022-12-07T09:50:23;2.30;99.90
33247;DHT22;19606;50.108;19.804;2022-12-07T09:52:51;2.40;99.90
33247;DHT22;19606;50.108;19.804;2022-12-07T09:55:27;2.40;99.90
33247;DHT22;19606;50.108;19.804;2022-12-07T09:57:53;2.50;99.90
33247;DHT22;19606;50.108;19.804;2022-12-07T10:00:21;2.30;99.90
33247;DHT22;19606;50.108;19.804;2022-12-07T10:05:20;2.30;99.90
33247;DHT22;19606;50.108;19.804;2022-12-07T10:07:47;3.30;99.90
33247;DHT22;19606;50.108;19.804;2022-12-07T10:10:25;3.60;99.90
33247;DHT22;19606;50.108;19.804;2022-12-07T10:12:55;2.60;99.90
33247;DHT22;19606;50.108;19.804;2022-12-07T10:15:21;2.40;99.90
33247;DHT22;19606;50.108;19.804;2022-12-07T10:17:52;2.50;99.90
33247;DHT22;19606;50.108;19.804;2022-12-07T10:20:27;2.80;99.90
33247;DHT22;19606;50.108;19.804;2022-12-07T10:23:02;2.50;99.90
33247;DHT22;19606;50.108;19.804;2022-12-07T10:25:34;2.50;99.90
33247;DHT22;19606;50.108;19.804;2022-12-07T10:28:16;2.40;99.90
33247;DHT22;19606;50.108;19.804;2022-12-07T10:31:01;2.40;99.90
33247;DHT22;19606;50.108;19.804;2022-12-07T10:33:34;2.50;99.90
33247;DHT22;19606;50.108;19.804;2022-12-07T10:36:14;2.50;99.90
33247;DHT22;19606;50.108;19.804;2022-12-07T10:38:48;2.60;99.90
33247;DHT22;19606;50.108;19.804;2022-12-07T10:41:14;2.70;99.90
33247;DHT22;19606;50.108;19.804;2022-12-07T10:43:55;3.00;99.90
33247;DHT22;19606;50.108;19.804;2022-12-07T10:46:37;2.80;99.90
33247;DHT22;19606;50.108;19.804;2022-12-07T10:55:03;2.90;99.90
33247;DHT22;19606;50.108;19.804;2022-12-07T11:00:25;3.00;99.90
33247;DHT22;19606;50.108;19.804;2022-12-07T11:05:54;3.00;99.90
33247;DHT22;19606;50.108;19.804;2022-12-07T11:11:36;3.10;99.90
33247;DHT22;19606;50.108;19.804;2022-12-07T11:14:36;3.10;99.90
33247;DHT22;19606;50.108;19.804;2022-12-07T11:26:05;3.30;99.90
33247;DHT22;19606;50.108;19.804;2022-12-07T11:31:41;3.20;99.90
33247;DHT22;19606;50.108;19.804;2022-12-07T11:34:41;3.30;99.90
33247;DHT22;19606;50.108;19.804;2022-12-07T11:37:14;3.30;99.90
33247;DHT22;19606;50.108;19.804;2022-12-07T11:39:54;3.50;99.90
33247;DHT22;19606;50.108;19.804;2022-12-07T11:42:37;3.20;99.90
33247;DHT22;19606;50.108;19.804;2022-12-07T11:45:13;3.30;99.90
33247;DHT22;19606;50.108;19.804;2022-12-07T11:50:55;3.30;99.90
33247;DHT22;19606;50.108;19.804;2022-12-07T11:56:15;3.30;99.90
33247;DHT22;19606;50.108;19.804;2022-12-07T12:06:41;3.40;81.30
33247;DHT22;19606;50.108;19.804;2022-12-07T12:09:19;3.80;46.50
33247;DHT22;19606;50.108;19.804;2022-12-07T12:12:20;3.50;35.00
33247;DHT22;19606;50.108;19.804;2022-12-07T12:20:28;3.50;1.00
33247;DHT22;19606;50.108;19.804;2022-12-07T12:23:04;3.80;28.80
33247;DHT22;19606;50.108;19.804;2022-12-07T12:25:38;3.50;32.60
33247;DHT22;19606;50.108;19.804;2022-12-07T12:28:04;3.50;1.00
33247;DHT22;19606;50.108;19.804;2022-12-07T12:30:38;3.70;21.60
33247;DHT22;19606;50.108;19.804;2022-12-07T12:33:20;3.80;1.00
33247;DHT22;19606;50.108;19.804;2022-12-07T12:54:37;3.60;1.00
33247;DHT22;19606;50.108;19.804;2022-12-07T12:57:16;3.70;1.00
33247;DHT22;19606;50.108;19.804;2022-12-07T12:59:57;3.50;1.00
33247;DHT22;19606;50.108;19.804;2022-12-07T13:23:24;3.70;99.90
33247;DHT22;19606;50.108;19.804;2022-12-07T13:28:26;3.70;99.90
33247;DHT22;19606;50.108;19.804;2022-12-07T13:33:29;3.70;12.40
33247;DHT22;19606;50.108;19.804;2022-12-07T13:35:56;3.70;99.30
33247;DHT22;19606;50.108;19.804;2022-12-07T13:38:26;3.50;1.00
33247;DHT22;19606;50.108;19.804;2022-12-07T13:41:03;3.30;99.90
33247;DHT22;19606;50.108;19.804;2022-12-07T13:43:29;3.50;99.90
33247;DHT22;19606;50.108;19.804;2022-12-07T13:45:59;3.20;99.90
33247;DHT22;19606;50.108;19.804;2022-12-07T13:50:59;3.20;99.90
33247;DHT22;19606;50.108;19.804;2022-12-07T13:53:26;3.30;99.90
33247;DHT22;19606;50.108;19.804;2022-12-07T13:55:59;3.40;99.90
33247;DHT22;19606;50.108;19.804;2022-12-07T13:58:27;3.10;99.90
33247;DHT22;19606;50.108;19.804;2022-12-07T14:00:55;3.30;99.90
33247;DHT22;19606;50.108;19.804;2022-12-07T14:03:28;3.10;1.00
33247;DHT22;19606;50.108;19.804;2022-12-07T14:08:31;3.00;99.90
33247;DHT22;19606;50.108;19.804;2022-12-07T14:10:57;3.30;99.90
33247;DHT22;19606;50.108;19.804;2022-12-07T14:13:33;3.10;1.00
33247;DHT22;19606;50.108;19.804;2022-12-07T14:18:43;3.20;99.90
33247;DHT22;19606;50.108;19.804;2022-12-07T14:23:34;1.70;1.00
33247;DHT22;19606;50.108;19.804;2022-12-07T14:26:09;3.20;1.00
33247;DHT22;19606;50.108;19.804;2022-12-07T14:28:37;3.20;1.00
33247;DHT22;19606;50.108;19.804;2022-12-07T14:31:04;3.30;1.00
33247;DHT22;19606;50.108;19.804;2022-12-07T14:33:35;3.20;1.00
33247;DHT22;19606;50.108;19.804;2022-12-07T14:36:01;3.20;1.00
33247;DHT22;19606;50.108;19.804;2022-12-07T14:38:26;3.20;1.00
33247;DHT22;19606;50.108;19.804;2022-12-07T14:40:53;3.30;1.00
33247;DHT22;19606;50.108;19.804;2022-12-07T14:43:20;3.40;1.00
33247;DHT22;19606;50.108;19.804;2022-12-07T14:45:45;3.30;1.00
33247;DHT22;19606;50.108;19.804;2022-12-07T14:48:13;3.20;1.00
33247;DHT22;19606;50.108;19.804;2022-12-07T14:50:45;3.30;1.00
33247;DHT22;19606;50.108;19.804;2022-12-07T14:53:15;3.50;1.00
33247;DHT22;19606;50.108;19.804;2022-12-07T14:55:41;3.50;1.00
33247;DHT22;19606;50.108;19.804;2022-12-07T14:58:15;3.50;1.00
33247;DHT22;19606;50.108;19.804;2022-12-07T15:00:42;3.30;1.00
33247;DHT22;19606;50.108;19.804;2022-12-07T15:03:07;3.60;1.00
33247;DHT22;19606;50.108;19.804;2022-12-07T15:05:34;3.10;1.00
33247;DHT22;19606;50.108;19.804;2022-12-07T15:08:00;3.50;1.00
33247;DHT22;19606;50.108;19.804;2022-12-07T15:10:28;3.10;1.00
33247;DHT22;19606;50.108;19.804;2022-12-07T15:12:56;3.50;1.00
33247;DHT22;19606;50.108;19.804;2022-12-07T15:15:42;3.40;1.00
33247;DHT22;19606;50.108;19.804;2022-12-07T15:18:08;3.10;1.20
33247;DHT22;19606;50.108;19.804;2022-12-07T15:20:33;3.10;62.60
33247;DHT22;19606;50.108;19.804;2022-12-07T15:22:59;3.20;1.00
33247;DHT22;19606;50.108;19.804;2022-12-07T15:25:24;3.30;99.90
33247;DHT22;19606;50.108;19.804;2022-12-07T15:27:50;3.10;99.90
33247;DHT22;19606;50.108;19.804;2022-12-07T15:30:16;3.40;99.90
33247;DHT22;19606;50.108;19.804;2022-12-07T15:32:41;3.10;99.90
33247;DHT22;19606;50.108;19.804;2022-12-07T15:35:07;3.20;99.90
33247;DHT22;19606;50.108;19.804;2022-12-07T15:37:33;3.00;99.90
33247;DHT22;19606;50.108;19.804;2022-12-07T15:39:59;3.00;1.00
33247;DHT22;19606;50.108;19.804;2022-12-07T15:42:25;3.10;1.00
33247;DHT22;19606;50.108;19.804;2022-12-07T15:44:50;3.40;99.90
33247;DHT22;19606;50.108;19.804;2022-12-07T15:47:42;3.30;1.00
33247;DHT22;19606;50.108;19.804;2022-12-07T15:50:11;3.20;99.90
33247;DHT22;19606;50.108;19.804;2022-12-07T15:52:38;3.00;99.90
33247;DHT22;19606;50.108;19.804;2022-12-07T15:55:04;3.30;1.00
33247;DHT22;19606;50.108;19.804;2022-12-07T15:57:31;2.90;1.00
33247;DHT22;19606;50.108;19.804;2022-12-07T15:59:58;3.00;1.00
33247;DHT22;19606;50.108;19.804;2022-12-07T16:02:24;3.00;99.90
33247;DHT22;19606;50.108;19.804;2022-12-07T16:04:50;3.10;1.00
33247;DHT22;19606;50.108;19.804;2022-12-07T16:07:16;3.00;1.00
33247;DHT22;19606;50.108;19.804;2022-12-07T16:09:43;3.20;99.90
33247;DHT22;19606;50.108;19.804;2022-12-07T16:12:10;3.50;99.90
33247;DHT22;19606;50.108;19.804;2022-12-07T16:14:36;2.70;99.90
33247;DHT22;19606;50.108;19.804;2022-12-07T16:17:02;3.60;99.90
33247;DHT22;19606;50.108;19.804;2022-12-07T16:19:27;3.00;61.80
33247;DHT22;19606;50.108;19.804;2022-12-07T16:21:53;3.20;99.90
33247;DHT22;19606;50.108;19.804;2022-12-07T16:24:19;3.30;1.00
33247;DHT22;19606;50.108;19.804;2022-12-07T16:26:45;3.30;1.00
33247;DHT22;19606;50.108;19.804;2022-12-07T16:29:12;3.00;1.00
33247;DHT22;19606;50.108;19.804;2022-12-07T16:31:38;3.20;1.00
33247;DHT22;19606;50.108;19.804;2022-12-07T16:34:04;3.30;1.00
33247;DHT22;19606;50.108;19.804;2022-12-07T16:36:29;3.20;1.00
33247;DHT22;19606;50.108;19.804;2022-12-07T16:38:55;3.10;1.00
33247;DHT22;19606;50.108;19.804;2022-12-07T16:41:21;3.20;1.00
33247;DHT22;19606;50.108;19.804;2022-12-07T16:43:47;3.00;1.00
33247;DHT22;19606;50.108;19.804;2022-12-07T16:46:12;3.10;1.00
33247;DHT22;19606;50.108;19.804;2022-12-07T16:48:39;3.20;1.00
33247;DHT22;19606;50.108;19.804;2022-12-07T16:51:06;3.70;1.00
33247;DHT22;19606;50.108;19.804;2022-12-07T16:53:34;3.00;1.00
33247;DHT22;19606;50.108;19.804;2022-12-07T16:56:00;3.30;99.90
33247;DHT22;19606;50.108;19.804;2022-12-07T16:58:26;3.10;1.00
33247;DHT22;19606;50.108;19.804;2022-12-07T17:00:52;3.20;99.90
33247;DHT22;19606;50.108;19.804;2022-12-07T17:03:22;3.00;1.00
33247;DHT22;19606;50.108;19.804;2022-12-07T17:05:48;2.90;1.00
33247;DHT22;19606;50.108;19.804;2022-12-07T17:08:15;2.80;1.00
33247;DHT22;19606;50.108;19.804;2022-12-07T17:10:43;2.80;99.90
33247;DHT22;19606;50.108;19.804;2022-12-07T17:13:10;2.90;43.30
33247;DHT22;19606;50.108;19.804;2022-12-07T17:15:59;2.70;1.00
33247;DHT22;19606;50.108;19.804;2022-12-07T17:18:27;2.80;99.90
33247;DHT22;19606;50.108;19.804;2022-12-07T17:20:53;2.70;1.00
33247;DHT22;19606;50.108;19.804;2022-12-07T17:23:19;3.00;99.90
33247;DHT22;19606;50.108;19.804;2022-12-07T17:25:45;3.20;99.90
33247;DHT22;19606;50.108;19.804;2022-12-07T17:28:11;2.70;99.90
33247;DHT22;19606;50.108;19.804;2022-12-07T17:30:38;3.00;99.90
33247;DHT22;19606;50.108;19.804;2022-12-07T17:33:04;3.00;99.90
33247;DHT22;19606;50.108;19.804;2022-12-07T17:35:29;3.00;99.90
33247;DHT22;19606;50.108;19.804;2022-12-07T17:37:55;2.60;99.90
33247;DHT22;19606;50.108;19.804;2022-12-07T17:40:21;2.50;1.00
33247;DHT22;19606;50.108;19.804;2022-12-07T17:42:47;2.50;1.00
33247;DHT22;19606;50.108;19.804;2022-12-07T17:45:16;2.40;1.00
33247;DHT22;19606;50.108;19.804;2022-12-07T17:47:42;2.60;1.00
33247;DHT22;19606;50.108;19.804;2022-12-07T17:50:08;2.50;1.00
33247;DHT22;19606;50.108;19.804;2022-12-07T17:52:38;2.40;1.00
33247;DHT22;19606;50.108;19.804;2022-12-07T17:55:23;2.70;99.90
33247;DHT22;19606;50.108;19.804;2022-12-07T17:57:48;2.60;1.00
33247;DHT22;19606;50.108;19.804;2022-12-07T18:00:15;2.60;1.00
33247;DHT22;19606;50.108;19.804;2022-12-07T18:02:40;2.40;1.00
33247;DHT22;19606;50.108;19.804;2022-12-07T18:05:06;2.50;1.00
33247;DHT22;19606;50.108;19.804;2022-12-07T18:07:32;2.60;1.00